sensor_id;sensor_type;location;lat;lon;timestamp;temperature;humidity
78028;DHT22;67235;45.638;11.714;2023-04-03T00:01:32;12.80;67.80
78028;DHT22;67235;45.638;11.714;2023-04-03T00:03:58;12.80;67.60
78028;DHT22;67235;45.638;11.714;2023-04-03T00:06:25;12.90;67.40
78028;DHT22;67235;45.638;11.714;2023-04-03T00:08:52;12.90;67.20
78028;DHT22;67235;45.638;11.714;2023-04-03T00:11:18;12.90;67.50
78028;DHT22;67235;45.638;11.714;2023-04-03T00:13:45;12.70;68.20
78028;DHT22;67235;45.638;11.714;2023-04-03T00:16:11;12.60;69.30
78028;DHT22;67235;45.638;11.714;2023-04-03T00:18:38;12.60;68.90
78028;DHT22;67235;45.638;11.714;2023-04-03T00:21:05;12.50;68.70
78028;DHT22;67235;45.638;11.714;2023-04-03T00:23:31;12.60;68.90
78028;DHT22;67235;45.638;11.714;2023-04-03T00:25:57;12.60;68.90
78028;DHT22;67235;45.638;11.714;2023-04-03T00:28:23;12.50;68.80
78028;DHT22;67235;45.638;11.714;2023-04-03T00:30:49;12.30;68.80
78028;DHT22;67235;45.638;11.714;2023-04-03T00:33:16;12.20;68.90
78028;DHT22;67235;45.638;11.714;2023-04-03T00:35:42;12.30;69.10
78028;DHT22;67235;45.638;11.714;2023-04-03T00:38:08;12.10;68.50
78028;DHT22;67235;45.638;11.714;2023-04-03T00:40:41;12.00;68.40
78028;DHT22;67235;45.638;11.714;2023-04-03T00:43:16;12.10;68.50
78028;DHT22;67235;45.638;11.714;2023-04-03T00:45:44;12.20;68.70
78028;DHT22;67235;45.638;11.714;2023-04-03T00:48:15;12.20;69.10
78028;DHT22;67235;45.638;11.714;2023-04-03T00:50:44;11.80;69.40
78028;DHT22;67235;45.638;11.714;2023-04-03T00:53:14;11.70;69.50
78028;DHT22;67235;45.638;11.714;2023-04-03T00:55:42;11.50;70.00
78028;DHT22;67235;45.638;11.714;2023-04-03T00:58:09;11.40;69.70
78028;DHT22;67235;45.638;11.714;2023-04-03T01:00:38;11.50;69.30
78028;DHT22;67235;45.638;11.714;2023-04-03T01:03:05;11.60;69.20
78028;DHT22;67235;45.638;11.714;2023-04-03T01:05:31;11.70;68.90
78028;DHT22;67235;45.638;11.714;2023-04-03T01:07:58;11.60;68.60
78028;DHT22;67235;45.638;11.714;2023-04-03T01:10:24;11.50;69.00
78028;DHT22;67235;45.638;11.714;2023-04-03T01:12:51;11.40;69.60
78028;DHT22;67235;45.638;11.714;2023-04-03T01:15:26;11.20;70.00
78028;DHT22;67235;45.638;11.714;2023-04-03T01:17:58;11.10;69.90
78028;DHT22;67235;45.638;11.714;2023-04-03T01:25:38;10.90;69.00
78028;DHT22;67235;45.638;11.714;2023-04-03T01:28:05;10.80;69.30
78028;DHT22;67235;45.638;11.714;2023-04-03T01:30:34;10.70;69.70
78028;DHT22;67235;45.638;11.714;2023-04-03T01:33:01;10.80;70.00
78028;DHT22;67235;45.638;11.714;2023-04-03T01:35:27;10.80;69.70
78028;DHT22;67235;45.638;11.714;2023-04-03T01:37:55;10.90;69.80
78028;DHT22;67235;45.638;11.714;2023-04-03T01:40:21;10.80;69.60
78028;DHT22;67235;45.638;11.714;2023-04-03T01:42:47;10.70;69.50
78028;DHT22;67235;45.638;11.714;2023-04-03T01:45:13;10.60;69.80
78028;DHT22;67235;45.638;11.714;2023-04-03T01:47:39;10.60;70.10
78028;DHT22;67235;45.638;11.714;2023-04-03T01:50:05;10.60;69.60
78028;DHT22;67235;45.638;11.714;2023-04-03T01:52:31;10.50;69.80
78028;DHT22;67235;45.638;11.714;2023-04-03T01:54:57;10.50;69.60
78028;DHT22;67235;45.638;11.714;2023-04-03T01:57:23;10.50;69.30
78028;DHT22;67235;45.638;11.714;2023-04-03T01:59:48;10.30;69.90
78028;DHT22;67235;45.638;11.714;2023-04-03T02:02:14;10.20;69.90
78028;DHT22;67235;45.638;11.714;2023-04-03T02:04:41;10.20;69.90
78028;DHT22;67235;45.638;11.714;2023-04-03T02:07:07;10.20;70.20
78028;DHT22;67235;45.638;11.714;2023-04-03T02:09:33;10.20;70.10
78028;DHT22;67235;45.638;11.714;2023-04-03T02:11:59;10.10;70.30
78028;DHT22;67235;45.638;11.714;2023-04-03T02:14:25;10.10;70.30
78028;DHT22;67235;45.638;11.714;2023-04-03T02:16:53;10.10;70.50
78028;DHT22;67235;45.638;11.714;2023-04-03T02:19:18;10.10;70.80
78028;DHT22;67235;45.638;11.714;2023-04-03T02:21:44;9.90;70.50
78028;DHT22;67235;45.638;11.714;2023-04-03T02:24:10;9.90;69.70
78028;DHT22;67235;45.638;11.714;2023-04-03T02:26:36;9.70;69.50
78028;DHT22;67235;45.638;11.714;2023-04-03T02:29:02;9.60;69.80
78028;DHT22;67235;45.638;11.714;2023-04-03T02:31:28;9.50;70.90
78028;DHT22;67235;45.638;11.714;2023-04-03T02:33:54;9.60;70.10
78028;DHT22;67235;45.638;11.714;2023-04-03T02:36:20;9.50;70.50
78028;DHT22;67235;45.638;11.714;2023-04-03T02:38:46;9.40;70.70
78028;DHT22;67235;45.638;11.714;2023-04-03T02:41:12;9.20;71.20
78028;DHT22;67235;45.638;11.714;2023-04-03T02:43:38;9.30;71.10
78028;DHT22;67235;45.638;11.714;2023-04-03T02:46:05;9.40;70.50
78028;DHT22;67235;45.638;11.714;2023-04-03T02:48:31;9.60;70.60
78028;DHT22;67235;45.638;11.714;2023-04-03T02:50:57;9.90;70.00
78028;DHT22;67235;45.638;11.714;2023-04-03T02:53:23;10.00;69.50
78028;DHT22;67235;45.638;11.714;2023-04-03T02:55:49;10.30;69.20
78028;DHT22;67235;45.638;11.714;2023-04-03T02:58:15;10.60;68.70
78028;DHT22;67235;45.638;11.714;2023-04-03T03:00:41;10.80;68.50
78028;DHT22;67235;45.638;11.714;2023-04-03T03:03:07;11.10;68.20
78028;DHT22;67235;45.638;11.714;2023-04-03T03:05:33;11.20;68.00
78028;DHT22;67235;45.638;11.714;2023-04-03T03:07:59;11.30;68.00
78028;DHT22;67235;45.638;11.714;2023-04-03T03:10:25;11.50;67.80
78028;DHT22;67235;45.638;11.714;2023-04-03T03:12:51;11.80;67.70
78028;DHT22;67235;45.638;11.714;2023-04-03T03:15:16;11.90;67.60
78028;DHT22;67235;45.638;11.714;2023-04-03T03:17:43;11.70;67.80
78028;DHT22;67235;45.638;11.714;2023-04-03T03:20:09;11.70;67.70
78028;DHT22;67235;45.638;11.714;2023-04-03T03:22:36;11.30;67.80
78028;DHT22;67235;45.638;11.714;2023-04-03T03:25:02;11.00;68.30
78028;DHT22;67235;45.638;11.714;2023-04-03T03:27:28;10.90;68.60
78028;DHT22;67235;45.638;11.714;2023-04-03T03:29:54;10.80;69.10
78028;DHT22;67235;45.638;11.714;2023-04-03T03:32:20;10.50;69.10
78028;DHT22;67235;45.638;11.714;2023-04-03T03:34:46;10.50;68.90
78028;DHT22;67235;45.638;11.714;2023-04-03T03:37:12;10.40;69.20
78028;DHT22;67235;45.638;11.714;2023-04-03T03:39:38;10.30;69.90
78028;DHT22;67235;45.638;11.714;2023-04-03T03:42:04;10.30;69.70
78028;DHT22;67235;45.638;11.714;2023-04-03T03:44:30;10.10;68.80
78028;DHT22;67235;45.638;11.714;2023-04-03T03:46:56;10.00;69.90
78028;DHT22;67235;45.638;11.714;2023-04-03T03:49:22;9.80;69.10
78028;DHT22;67235;45.638;11.714;2023-04-03T03:51:48;9.70;70.20
78028;DHT22;67235;45.638;11.714;2023-04-03T03:54:15;9.60;70.20
78028;DHT22;67235;45.638;11.714;2023-04-03T03:56:41;9.60;70.00
78028;DHT22;67235;45.638;11.714;2023-04-03T03:59:07;9.50;70.50
78028;DHT22;67235;45.638;11.714;2023-04-03T04:01:33;9.50;71.00
78028;DHT22;67235;45.638;11.714;2023-04-03T04:04:00;9.60;71.40
78028;DHT22;67235;45.638;11.714;2023-04-03T04:06:27;9.60;70.80
78028;DHT22;67235;45.638;11.714;2023-04-03T04:08:53;9.50;70.50
78028;DHT22;67235;45.638;11.714;2023-04-03T04:11:19;9.50;70.60
78028;DHT22;67235;45.638;11.714;2023-04-03T04:13:46;9.40;70.10
78028;DHT22;67235;45.638;11.714;2023-04-03T04:16:12;9.30;70.90
78028;DHT22;67235;45.638;11.714;2023-04-03T04:18:38;9.20;70.20
78028;DHT22;67235;45.638;11.714;2023-04-03T04:21:05;9.10;70.40
78028;DHT22;67235;45.638;11.714;2023-04-03T04:23:32;9.10;70.70
78028;DHT22;67235;45.638;11.714;2023-04-03T04:25:58;9.10;70.60
78028;DHT22;67235;45.638;11.714;2023-04-03T04:28:24;9.00;70.10
78028;DHT22;67235;45.638;11.714;2023-04-03T04:30:52;9.00;70.30
78028;DHT22;67235;45.638;11.714;2023-04-03T04:33:17;8.90;70.00
78028;DHT22;67235;45.638;11.714;2023-04-03T04:35:44;8.80;70.40
78028;DHT22;67235;45.638;11.714;2023-04-03T04:38:10;8.80;70.10
78028;DHT22;67235;45.638;11.714;2023-04-03T04:40:36;8.80;70.30
78028;DHT22;67235;45.638;11.714;2023-04-03T04:43:03;8.70;70.10
78028;DHT22;67235;45.638;11.714;2023-04-03T04:45:29;8.60;69.80
78028;DHT22;67235;45.638;11.714;2023-04-03T04:47:56;8.50;69.90
78028;DHT22;67235;45.638;11.714;2023-04-03T04:50:22;8.40;69.80
78028;DHT22;67235;45.638;11.714;2023-04-03T04:52:48;8.50;70.00
78028;DHT22;67235;45.638;11.714;2023-04-03T04:55:15;8.50;70.20
78028;DHT22;67235;45.638;11.714;2023-04-03T04:57:41;8.60;70.30
78028;DHT22;67235;45.638;11.714;2023-04-03T05:00:07;8.70;70.10
78028;DHT22;67235;45.638;11.714;2023-04-03T05:02:36;8.70;70.00
78028;DHT22;67235;45.638;11.714;2023-04-03T05:05:05;8.70;70.00
78028;DHT22;67235;45.638;11.714;2023-04-03T05:07:35;9.20;69.10
78028;DHT22;67235;45.638;11.714;2023-04-03T05:10:04;9.80;67.80
78028;DHT22;67235;45.638;11.714;2023-04-03T05:12:32;10.80;66.90
78028;DHT22;67235;45.638;11.714;2023-04-03T05:14:58;11.90;65.60
78028;DHT22;67235;45.638;11.714;2023-04-03T05:17:26;12.70;64.80
78028;DHT22;67235;45.638;11.714;2023-04-03T05:19:52;13.30;63.00
78028;DHT22;67235;45.638;11.714;2023-04-03T05:22:18;13.70;62.10
78028;DHT22;67235;45.638;11.714;2023-04-03T05:24:44;14.10;49.10
78028;DHT22;67235;45.638;11.714;2023-04-03T05:27:09;14.60;48.00
78028;DHT22;67235;45.638;11.714;2023-04-03T05:29:36;15.20;48.10
78028;DHT22;67235;45.638;11.714;2023-04-03T05:32:02;16.30;46.90
78028;DHT22;67235;45.638;11.714;2023-04-03T05:34:28;17.00;44.50
78028;DHT22;67235;45.638;11.714;2023-04-03T05:36:54;17.50;43.50
78028;DHT22;67235;45.638;11.714;2023-04-03T05:39:20;17.30;44.30
78028;DHT22;67235;45.638;11.714;2023-04-03T05:41:45;17.90;44.40
78028;DHT22;67235;45.638;11.714;2023-04-03T05:44:11;17.70;43.60
78028;DHT22;67235;45.638;11.714;2023-04-03T05:46:37;18.30;42.30
78028;DHT22;67235;45.638;11.714;2023-04-03T05:49:03;18.80;41.10
78028;DHT22;67235;45.638;11.714;2023-04-03T05:51:33;19.60;40.40
78028;DHT22;67235;45.638;11.714;2023-04-03T05:54:06;20.20;39.30
78028;DHT22;67235;45.638;11.714;2023-04-03T05:56:34;20.30;37.40
78028;DHT22;67235;45.638;11.714;2023-04-03T05:59:00;20.70;36.80
78028;DHT22;67235;45.638;11.714;2023-04-03T06:01:26;21.30;34.70
78028;DHT22;67235;45.638;11.714;2023-04-03T06:03:52;21.10;33.80
78028;DHT22;67235;45.638;11.714;2023-04-03T06:06:18;21.10;33.40
78028;DHT22;67235;45.638;11.714;2023-04-03T06:08:43;20.70;35.90
78028;DHT22;67235;45.638;11.714;2023-04-03T06:11:10;21.40;34.80
78028;DHT22;67235;45.638;11.714;2023-04-03T06:13:36;22.00;33.30
78028;DHT22;67235;45.638;11.714;2023-04-03T06:16:02;22.30;31.10
78028;DHT22;67235;45.638;11.714;2023-04-03T06:18:29;21.90;32.10
78028;DHT22;67235;45.638;11.714;2023-04-03T06:20:55;21.30;33.30
78028;DHT22;67235;45.638;11.714;2023-04-03T06:23:21;21.00;33.30
78028;DHT22;67235;45.638;11.714;2023-04-03T06:25:47;20.60;35.50
78028;DHT22;67235;45.638;11.714;2023-04-03T06:28:23;20.60;35.40
78028;DHT22;67235;45.638;11.714;2023-04-03T06:30:52;21.00;34.80
78028;DHT22;67235;45.638;11.714;2023-04-03T06:33:31;20.50;36.10
78028;DHT22;67235;45.638;11.714;2023-04-03T06:36:19;20.50;37.50
78028;DHT22;67235;45.638;11.714;2023-04-03T06:38:51;20.50;34.70
78028;DHT22;67235;45.638;11.714;2023-04-03T06:41:30;20.40;35.60
78028;DHT22;67235;45.638;11.714;2023-04-03T06:44:00;20.40;36.90
78028;DHT22;67235;45.638;11.714;2023-04-03T06:46:46;20.00;37.60
78028;DHT22;67235;45.638;11.714;2023-04-03T06:49:24;19.30;41.40
78028;DHT22;67235;45.638;11.714;2023-04-03T06:52:02;18.50;41.60
78028;DHT22;67235;45.638;11.714;2023-04-03T06:54:29;17.50;47.90
78028;DHT22;67235;45.638;11.714;2023-04-03T06:56:55;16.80;47.50
78028;DHT22;67235;45.638;11.714;2023-04-03T06:59:21;16.20;49.30
78028;DHT22;67235;45.638;11.714;2023-04-03T07:01:47;15.80;48.60
78028;DHT22;67235;45.638;11.714;2023-04-03T07:04:14;15.70;50.60
78028;DHT22;67235;45.638;11.714;2023-04-03T07:06:41;15.70;50.60
78028;DHT22;67235;45.638;11.714;2023-04-03T07:09:12;15.60;52.50
78028;DHT22;67235;45.638;11.714;2023-04-03T07:11:55;15.00;62.10
78028;DHT22;67235;45.638;11.714;2023-04-03T07:14:22;14.70;62.60
78028;DHT22;67235;45.638;11.714;2023-04-03T07:16:52;14.40;63.30
78028;DHT22;67235;45.638;11.714;2023-04-03T07:19:19;14.40;63.60
78028;DHT22;67235;45.638;11.714;2023-04-03T07:21:47;14.30;63.70
78028;DHT22;67235;45.638;11.714;2023-04-03T07:24:16;14.30;63.70
78028;DHT22;67235;45.638;11.714;2023-04-03T07:26:42;14.50;63.70
78028;DHT22;67235;45.638;11.714;2023-04-03T07:29:10;14.50;63.40
78028;DHT22;67235;45.638;11.714;2023-04-03T07:31:40;14.70;64.00
78028;DHT22;67235;45.638;11.714;2023-04-03T07:34:13;14.60;63.80
78028;DHT22;67235;45.638;11.714;2023-04-03T07:36:40;15.10;62.90
78028;DHT22;67235;45.638;11.714;2023-04-03T07:39:06;15.90;50.90
78028;DHT22;67235;45.638;11.714;2023-04-03T07:41:32;15.90;49.00
78028;DHT22;67235;45.638;11.714;2023-04-03T07:44:02;16.00;50.80
78028;DHT22;67235;45.638;11.714;2023-04-03T07:46:28;15.90;50.40
78028;DHT22;67235;45.638;11.714;2023-04-03T07:48:55;15.60;50.60
78028;DHT22;67235;45.638;11.714;2023-04-03T07:51:21;15.50;51.70
78028;DHT22;67235;45.638;11.714;2023-04-03T07:53:47;15.60;50.70
78028;DHT22;67235;45.638;11.714;2023-04-03T07:56:14;15.60;51.80
78028;DHT22;67235;45.638;11.714;2023-04-03T07:58:40;15.80;49.70
78028;DHT22;67235;45.638;11.714;2023-04-03T08:01:06;16.10;50.10
78028;DHT22;67235;45.638;11.714;2023-04-03T08:03:34;16.20;50.20
78028;DHT22;67235;45.638;11.714;2023-04-03T08:06:06;16.60;47.90
78028;DHT22;67235;45.638;11.714;2023-04-03T08:08:32;16.70;47.00
78028;DHT22;67235;45.638;11.714;2023-04-03T08:11:00;16.40;44.80
78028;DHT22;67235;45.638;11.714;2023-04-03T08:13:29;16.20;45.90
78028;DHT22;67235;45.638;11.714;2023-04-03T08:15:57;16.70;46.80
78028;DHT22;67235;45.638;11.714;2023-04-03T08:18:26;16.70;45.50
78028;DHT22;67235;45.638;11.714;2023-04-03T08:20:52;17.00;43.80
78028;DHT22;67235;45.638;11.714;2023-04-03T08:23:18;17.80;43.70
78028;DHT22;67235;45.638;11.714;2023-04-03T08:25:44;18.30;39.70
78028;DHT22;67235;45.638;11.714;2023-04-03T08:28:11;17.60;45.90
78028;DHT22;67235;45.638;11.714;2023-04-03T08:30:40;17.80;43.50
78028;DHT22;67235;45.638;11.714;2023-04-03T08:33:06;17.60;43.50
78028;DHT22;67235;45.638;11.714;2023-04-03T08:35:32;17.50;41.00
78028;DHT22;67235;45.638;11.714;2023-04-03T08:37:58;17.00;44.10
78028;DHT22;67235;45.638;11.714;2023-04-03T08:40:34;16.40;44.80
78028;DHT22;67235;45.638;11.714;2023-04-03T08:43:34;16.60;45.40
78028;DHT22;67235;45.638;11.714;2023-04-03T08:46:13;16.20;44.10
78028;DHT22;67235;45.638;11.714;2023-04-03T08:48:43;16.20;44.20
78028;DHT22;67235;45.638;11.714;2023-04-03T08:51:50;16.50;43.70
78028;DHT22;67235;45.638;11.714;2023-04-03T08:54:53;16.60;45.50
78028;DHT22;67235;45.638;11.714;2023-04-03T08:57:44;17.20;46.30
78028;DHT22;67235;45.638;11.714;2023-04-03T09:03:04;18.10;42.80
78028;DHT22;67235;45.638;11.714;2023-04-03T09:09:02;19.60;37.90
78028;DHT22;67235;45.638;11.714;2023-04-03T09:17:02;19.70;32.50
78028;DHT22;67235;45.638;11.714;2023-04-03T09:19:58;18.90;35.80
78028;DHT22;67235;45.638;11.714;2023-04-03T09:22:27;18.40;39.10
78028;DHT22;67235;45.638;11.714;2023-04-03T09:25:18;18.30;37.10
78028;DHT22;67235;45.638;11.714;2023-04-03T09:27:45;18.20;39.70
78028;DHT22;67235;45.638;11.714;2023-04-03T09:30:21;17.70;39.10
78028;DHT22;67235;45.638;11.714;2023-04-03T09:32:50;18.70;38.30
78028;DHT22;67235;45.638;11.714;2023-04-03T09:37:52;18.30;40.20
78028;DHT22;67235;45.638;11.714;2023-04-03T09:40:35;18.30;38.70
78028;DHT22;67235;45.638;11.714;2023-04-03T09:43:33;19.20;37.30
78028;DHT22;67235;45.638;11.714;2023-04-03T09:46:33;19.50;34.50
78028;DHT22;67235;45.638;11.714;2023-04-03T11:09:38;18.40;35.20
78028;DHT22;67235;45.638;11.714;2023-04-03T11:12:46;18.70;34.90
78028;DHT22;67235;45.638;11.714;2023-04-03T11:15:19;19.30;35.20
78028;DHT22;67235;45.638;11.714;2023-04-03T11:18:14;18.80;35.00
78028;DHT22;67235;45.638;11.714;2023-04-03T11:23:35;18.40;36.20
78028;DHT22;67235;45.638;11.714;2023-04-03T11:26:24;18.20;35.90
78028;DHT22;67235;45.638;11.714;2023-04-03T11:29:12;18.50;34.10
78028;DHT22;67235;45.638;11.714;2023-04-03T11:34:42;19.40;33.10
78028;DHT22;67235;45.638;11.714;2023-04-03T11:37:48;19.20;32.70
78028;DHT22;67235;45.638;11.714;2023-04-03T11:40:31;18.80;33.00
78028;DHT22;67235;45.638;11.714;2023-04-03T11:45:54;18.60;33.30
78028;DHT22;67235;45.638;11.714;2023-04-03T11:48:45;18.90;33.90
78028;DHT22;67235;45.638;11.714;2023-04-03T11:53:46;19.80;31.20
78028;DHT22;67235;45.638;11.714;2023-04-03T12:04:21;19.60;34.50
78028;DHT22;67235;45.638;11.714;2023-04-03T12:06:59;19.40;33.00
78028;DHT22;67235;45.638;11.714;2023-04-03T12:09:57;20.00;31.40
78028;DHT22;67235;45.638;11.714;2023-04-03T12:12:40;20.20;31.50
78028;DHT22;67235;45.638;11.714;2023-04-03T12:18:42;20.20;33.40
78028;DHT22;67235;45.638;11.714;2023-04-03T12:21:11;20.20;30.80
78028;DHT22;67235;45.638;11.714;2023-04-03T12:28:56;20.10;28.80
78028;DHT22;67235;45.638;11.714;2023-04-03T12:31:25;19.80;30.50
78028;DHT22;67235;45.638;11.714;2023-04-03T12:34:24;19.70;30.00
78028;DHT22;67235;45.638;11.714;2023-04-03T12:37:07;19.90;30.80
78028;DHT22;67235;45.638;11.714;2023-04-03T12:42:42;20.70;29.50
78028;DHT22;67235;45.638;11.714;2023-04-03T12:46:18;20.70;29.00
78028;DHT22;67235;45.638;11.714;2023-04-03T12:48:33;20.90;29.10
78028;DHT22;67235;45.638;11.714;2023-04-03T12:51:08;21.20;26.40
78028;DHT22;67235;45.638;11.714;2023-04-03T12:53:37;20.80;27.10
78028;DHT22;67235;45.638;11.714;2023-04-03T12:56:28;20.40;28.90
78028;DHT22;67235;45.638;11.714;2023-04-03T12:59:12;20.30;28.20
78028;DHT22;67235;45.638;11.714;2023-04-03T13:01:39;20.40;28.10
78028;DHT22;67235;45.638;11.714;2023-04-03T13:04:05;19.90;32.30
78028;DHT22;67235;45.638;11.714;2023-04-03T13:06:38;20.10;32.10
78028;DHT22;67235;45.638;11.714;2023-04-03T13:09:05;19.90;31.10
78028;DHT22;67235;45.638;11.714;2023-04-03T13:11:36;19.60;30.20
78028;DHT22;67235;45.638;11.714;2023-04-03T13:14:13;19.90;31.40
78028;DHT22;67235;45.638;11.714;2023-04-03T13:16:40;19.60;31.10
78028;DHT22;67235;45.638;11.714;2023-04-03T13:19:16;19.60;30.40
78028;DHT22;67235;45.638;11.714;2023-04-03T13:21:42;19.40;29.70
78028;DHT22;67235;45.638;11.714;2023-04-03T13:24:10;19.60;31.40
78028;DHT22;67235;45.638;11.714;2023-04-03T13:26:36;19.40;29.50
78028;DHT22;67235;45.638;11.714;2023-04-03T13:29:19;18.90;31.50
78028;DHT22;67235;45.638;11.714;2023-04-03T13:31:46;19.00;32.50
78028;DHT22;67235;45.638;11.714;2023-04-03T13:34:19;18.80;29.10
78028;DHT22;67235;45.638;11.714;2023-04-03T13:39:25;19.10;29.40
78028;DHT22;67235;45.638;11.714;2023-04-03T13:41:54;19.20;31.80
78028;DHT22;67235;45.638;11.714;2023-04-03T13:46:55;18.90;31.10
78028;DHT22;67235;45.638;11.714;2023-04-03T13:49:39;18.60;29.00
78028;DHT22;67235;45.638;11.714;2023-04-03T13:54:54;18.90;32.00
78028;DHT22;67235;45.638;11.714;2023-04-03T13:57:22;18.80;33.10
78028;DHT22;67235;45.638;11.714;2023-04-03T13:59:48;19.10;33.30
78028;DHT22;67235;45.638;11.714;2023-04-03T14:02:20;18.90;29.40
78028;DHT22;67235;45.638;11.714;2023-04-03T14:04:51;19.40;30.80
78028;DHT22;67235;45.638;11.714;2023-04-03T14:07:19;19.30;32.10
78028;DHT22;67235;45.638;11.714;2023-04-03T14:09:47;19.00;30.90
78028;DHT22;67235;45.638;11.714;2023-04-03T14:12:28;18.70;33.10
78028;DHT22;67235;45.638;11.714;2023-04-03T14:14:55;18.40;31.40
78028;DHT22;67235;45.638;11.714;2023-04-03T14:17:24;17.90;34.00
78028;DHT22;67235;45.638;11.714;2023-04-03T14:19:51;17.60;32.90
78028;DHT22;67235;45.638;11.714;2023-04-03T14:22:23;17.80;34.70
78028;DHT22;67235;45.638;11.714;2023-04-03T14:24:50;18.10;35.50
78028;DHT22;67235;45.638;11.714;2023-04-03T14:27:20;18.00;33.30
78028;DHT22;67235;45.638;11.714;2023-04-03T14:29:47;18.30;31.20
78028;DHT22;67235;45.638;11.714;2023-04-03T14:32:16;18.10;35.80
78028;DHT22;67235;45.638;11.714;2023-04-03T14:34:43;18.30;35.50
78028;DHT22;67235;45.638;11.714;2023-04-03T14:37:15;18.40;35.00
78028;DHT22;67235;45.638;11.714;2023-04-03T14:39:42;18.70;33.60
78028;DHT22;67235;45.638;11.714;2023-04-03T14:42:14;18.70;31.10
78028;DHT22;67235;45.638;11.714;2023-04-03T14:44:40;18.70;28.90
78028;DHT22;67235;45.638;11.714;2023-04-03T14:47:12;18.60;30.40
78028;DHT22;67235;45.638;11.714;2023-04-03T14:49:39;18.50;32.80
78028;DHT22;67235;45.638;11.714;2023-04-03T14:52:06;18.50;31.80
78028;DHT22;67235;45.638;11.714;2023-04-03T14:54:42;18.20;33.00
78028;DHT22;67235;45.638;11.714;2023-04-03T15:00:44;17.10;31.50
78028;DHT22;67235;45.638;11.714;2023-04-03T15:03:20;16.50;34.00
78028;DHT22;67235;45.638;11.714;2023-04-03T15:05:48;16.10;31.70
78028;DHT22;67235;45.638;11.714;2023-04-03T15:08:18;15.90;35.10
78028;DHT22;67235;45.638;11.714;2023-04-03T15:10:44;15.70;35.80
78028;DHT22;67235;45.638;11.714;2023-04-03T15:13:13;15.70;32.20
78028;DHT22;67235;45.638;11.714;2023-04-03T15:15:43;15.60;32.60
78028;DHT22;67235;45.638;11.714;2023-04-03T15:18:20;15.50;33.20
78028;DHT22;67235;45.638;11.714;2023-04-03T15:20:47;15.40;33.20
78028;DHT22;67235;45.638;11.714;2023-04-03T15:23:16;15.30;33.50
78028;DHT22;67235;45.638;11.714;2023-04-03T15:25:47;15.40;36.00
78028;DHT22;67235;45.638;11.714;2023-04-03T15:28:35;15.30;34.80
78028;DHT22;67235;45.638;11.714;2023-04-03T15:31:02;15.30;34.10
78028;DHT22;67235;45.638;11.714;2023-04-03T15:33:34;15.40;35.50
78028;DHT22;67235;45.638;11.714;2023-04-03T15:36:00;15.40;35.80
78028;DHT22;67235;45.638;11.714;2023-04-03T15:38:26;15.30;36.60
78028;DHT22;67235;45.638;11.714;2023-04-03T15:40:53;15.30;36.40
78028;DHT22;67235;45.638;11.714;2023-04-03T15:43:20;15.50;33.50
78028;DHT22;67235;45.638;11.714;2023-04-03T15:45:46;15.10;34.30
78028;DHT22;67235;45.638;11.714;2023-04-03T15:48:12;15.20;36.30
78028;DHT22;67235;45.638;11.714;2023-04-03T15:50:39;15.20;34.90
78028;DHT22;67235;45.638;11.714;2023-04-03T15:53:05;15.10;33.50
78028;DHT22;67235;45.638;11.714;2023-04-03T15:55:34;15.30;33.10
78028;DHT22;67235;45.638;11.714;2023-04-03T15:58:00;15.20;32.20
78028;DHT22;67235;45.638;11.714;2023-04-03T16:00:27;15.20;34.20
78028;DHT22;67235;45.638;11.714;2023-04-03T16:02:59;15.10;34.90
78028;DHT22;67235;45.638;11.714;2023-04-03T16:05:27;15.20;35.00
78028;DHT22;67235;45.638;11.714;2023-04-03T16:07:53;15.20;35.50
78028;DHT22;67235;45.638;11.714;2023-04-03T16:10:22;15.30;34.50
78028;DHT22;67235;45.638;11.714;2023-04-03T16:12:48;15.20;33.10
78028;DHT22;67235;45.638;11.714;2023-04-03T16:15:14;15.30;35.80
78028;DHT22;67235;45.638;11.714;2023-04-03T16:17:39;15.30;34.60
78028;DHT22;67235;45.638;11.714;2023-04-03T16:20:11;15.20;34.00
78028;DHT22;67235;45.638;11.714;2023-04-03T16:22:37;15.10;33.30
78028;DHT22;67235;45.638;11.714;2023-04-03T16:25:05;15.10;34.20
78028;DHT22;67235;45.638;11.714;2023-04-03T16:27:34;15.00;33.20
78028;DHT22;67235;45.638;11.714;2023-04-03T16:30:02;14.80;35.40
78028;DHT22;67235;45.638;11.714;2023-04-03T16:32:32;15.00;33.70
78028;DHT22;67235;45.638;11.714;2023-04-03T16:35:04;14.70;34.70
78028;DHT22;67235;45.638;11.714;2023-04-03T16:37:30;14.80;33.20
78028;DHT22;67235;45.638;11.714;2023-04-03T16:39:56;14.80;35.30
78028;DHT22;67235;45.638;11.714;2023-04-03T16:42:24;14.70;35.70
78028;DHT22;67235;45.638;11.714;2023-04-03T16:44:50;14.60;36.30
78028;DHT22;67235;45.638;11.714;2023-04-03T16:47:16;14.50;37.00
78028;DHT22;67235;45.638;11.714;2023-04-03T16:49:45;14.40;35.40
78028;DHT22;67235;45.638;11.714;2023-04-03T16:52:11;14.50;35.60
78028;DHT22;67235;45.638;11.714;2023-04-03T16:54:37;14.40;36.40
78028;DHT22;67235;45.638;11.714;2023-04-03T16:57:03;14.40;34.60
78028;DHT22;67235;45.638;11.714;2023-04-03T16:59:28;14.50;34.80
78028;DHT22;67235;45.638;11.714;2023-04-03T17:01:54;14.30;33.90
78028;DHT22;67235;45.638;11.714;2023-04-03T17:04:20;14.30;33.40
78028;DHT22;67235;45.638;11.714;2023-04-03T17:06:47;14.30;33.20
78028;DHT22;67235;45.638;11.714;2023-04-03T17:09:13;14.40;33.70
78028;DHT22;67235;45.638;11.714;2023-04-03T17:11:39;14.40;34.30
78028;DHT22;67235;45.638;11.714;2023-04-03T17:14:05;14.20;32.00
78028;DHT22;67235;45.638;11.714;2023-04-03T17:16:33;14.30;30.80
78028;DHT22;67235;45.638;11.714;2023-04-03T17:18:59;14.30;32.70
78028;DHT22;67235;45.638;11.714;2023-04-03T17:21:25;14.30;34.70
78028;DHT22;67235;45.638;11.714;2023-04-03T17:23:58;14.30;31.90
78028;DHT22;67235;45.638;11.714;2023-04-03T17:26:26;14.20;32.70
78028;DHT22;67235;45.638;11.714;2023-04-03T17:28:52;14.20;32.30
78028;DHT22;67235;45.638;11.714;2023-04-03T17:31:18;14.20;31.50
78028;DHT22;67235;45.638;11.714;2023-04-03T17:33:44;14.20;32.90
78028;DHT22;67235;45.638;11.714;2023-04-03T17:36:10;14.10;32.50
78028;DHT22;67235;45.638;11.714;2023-04-03T17:38:36;14.00;34.50
78028;DHT22;67235;45.638;11.714;2023-04-03T17:41:09;14.00;31.90
78028;DHT22;67235;45.638;11.714;2023-04-03T17:43:42;13.90;32.50
78028;DHT22;67235;45.638;11.714;2023-04-03T17:46:10;13.90;35.90
78028;DHT22;67235;45.638;11.714;2023-04-03T17:48:38;13.80;32.30
78028;DHT22;67235;45.638;11.714;2023-04-03T17:51:06;13.80;32.30
78028;DHT22;67235;45.638;11.714;2023-04-03T17:53:32;13.80;35.10
78028;DHT22;67235;45.638;11.714;2023-04-03T17:55:58;13.80;34.00